createdAt,value
2022-09-11T00:01:39.841Z,69.77
2022-09-11T00:04:07.233Z,70.08
2022-09-11T00:06:34.600Z,70.10
2022-09-11T00:09:05.220Z,70.17
2022-09-11T00:11:40.693Z,69.67
2022-09-11T00:14:10.646Z,69.71
2022-09-11T00:16:42.543Z,69.44
2022-09-11T00:19:18.969Z,69.17
2022-09-11T00:21:47.659Z,69.08
2022-09-11T00:24:15.028Z,68.84
2022-09-11T00:26:42.820Z,68.66
2022-09-11T00:29:10.494Z,68.93
2022-09-11T00:31:37.909Z,69.34
2022-09-11T00:34:09.490Z,69.18
2022-09-11T00:36:39.253Z,69.91
2022-09-11T00:39:06.892Z,70.05
2022-09-11T00:41:42.379Z,70.16
2022-09-11T00:44:18.933Z,70.05
2022-09-11T00:46:56.703Z,69.85
2022-09-11T00:49:41.416Z,70.36
2022-09-11T00:52:28.152Z,70.36
2022-09-11T00:55:00.107Z,70.01
2022-09-11T00:57:35.004Z,69.87
2022-09-11T01:00:04.587Z,70.00
2022-09-11T01:02:36.786Z,69.89
2022-09-11T01:05:06.211Z,70.11
2022-09-11T01:07:36.372Z,69.85
2022-09-11T01:10:07.993Z,70.49
2022-09-11T01:13:10.786Z,70.69
2022-09-11T01:16:22.521Z,70.37
2022-09-11T01:19:27.006Z,70.76
2022-09-11T01:22:06.317Z,70.35
2022-09-11T01:25:09.266Z,70.29
2022-09-11T01:27:50.381Z,70.27
2022-09-11T01:30:26.607Z,70.13
2022-09-11T01:33:14.823Z,70.13
2022-09-11T01:36:03.245Z,70.49
2022-09-11T01:38:48.603Z,70.61
2022-09-11T01:41:40.805Z,70.60
2022-09-11T01:44:26.558Z,70.98
2022-09-11T01:46:54.371Z,71.36
2022-09-11T01:49:48.261Z,71.05
2022-09-11T01:52:28.126Z,70.84
2022-09-11T01:55:01.936Z,70.91
2022-09-11T01:57:52.565Z,70.99
2022-09-11T02:00:20.033Z,71.13
2022-09-11T02:02:57.723Z,71.00
2022-09-11T02:05:33.775Z,70.81
2022-09-11T02:08:11.581Z,71.27
2022-09-11T02:10:52.070Z,71.28
2022-09-11T02:13:37.278Z,71.38
2022-09-11T02:16:41.239Z,71.15
2022-09-11T02:19:14.171Z,71.53
2022-09-11T02:21:41.503Z,71.53
2022-09-11T02:24:09.686Z,71.43
2022-09-11T02:27:01.615Z,71.50
2022-09-11T02:29:29.202Z,71.70
2022-09-11T02:31:56.478Z,71.38
2022-09-11T02:34:32.218Z,71.74
2022-09-11T02:37:24.997Z,72.87
2022-09-11T02:40:50.899Z,72.63
2022-09-11T02:43:49.968Z,72.51
2022-09-11T02:47:05.606Z,72.59
2022-09-11T02:49:47.486Z,72.48
2022-09-11T02:52:31.854Z,72.33
2022-09-11T02:55:17.343Z,72.12
2022-09-11T02:58:36.672Z,71.99
2022-09-11T03:01:04.907Z,71.89
2022-09-11T03:03:46.738Z,71.94
2022-09-11T03:06:28.191Z,71.55
2022-09-11T03:08:55.852Z,71.74
2022-09-11T03:11:23.217Z,71.83
2022-09-11T03:13:50.457Z,71.69
2022-09-11T03:16:17.856Z,72.09
2022-09-11T03:18:45.140Z,72.35
2022-09-11T03:21:12.346Z,72.06
2022-09-11T03:23:39.845Z,71.87
2022-09-11T03:26:07.350Z,71.87
2022-09-11T03:28:34.717Z,72.08
2022-09-11T03:31:02.065Z,72.18
2022-09-11T03:33:29.497Z,72.18
2022-09-11T03:35:57.361Z,72.10
2022-09-11T03:38:24.885Z,72.48
2022-09-11T03:40:52.100Z,72.13
2022-09-11T03:43:19.519Z,72.47
2022-09-11T03:45:50.270Z,72.42
2022-09-11T03:48:18.500Z,72.97
2022-09-11T03:50:47.789Z,72.24
2022-09-11T03:53:15.860Z,72.25
2022-09-11T03:55:45.302Z,72.53
2022-09-11T03:58:13.167Z,72.31
2022-09-11T04:00:44.310Z,72.21
2022-09-11T04:03:12.963Z,71.75
2022-09-11T04:05:40.445Z,72.38
2022-09-11T04:08:07.760Z,72.09
2022-09-11T04:10:35.490Z,72.03
2022-09-11T04:13:02.772Z,71.91
2022-09-11T04:15:31.130Z,72.18
2022-09-11T04:18:02.105Z,72.11
2022-09-11T04:20:32.145Z,72.41
2022-09-11T04:22:59.494Z,72.44
2022-09-11T04:25:26.774Z,72.43
2022-09-11T04:27:53.963Z,72.50
2022-09-11T04:30:22.450Z,72.19
2022-09-11T04:32:50.439Z,72.16
2022-09-11T04:35:19.197Z,72.03
2022-09-11T04:37:46.388Z,72.02
2022-09-11T04:40:13.710Z,71.71
2022-09-11T04:42:41.018Z,71.94
2022-09-11T04:45:08.691Z,71.72
2022-09-11T04:47:36.007Z,71.62
2022-09-11T04:50:03.406Z,71.55
2022-09-11T04:52:31.158Z,71.91
2022-09-11T04:54:58.754Z,71.33
2022-09-11T04:57:26.250Z,71.46
2022-09-11T04:59:54.226Z,71.07
2022-09-11T05:02:21.999Z,71.85
2022-09-11T05:04:49.229Z,71.13
2022-09-11T05:07:16.581Z,71.78
2022-09-11T05:09:43.801Z,71.47
2022-09-11T05:12:11.014Z,71.55
2022-09-11T05:14:38.198Z,71.33
2022-09-11T05:17:05.538Z,71.53
2022-09-11T05:19:32.741Z,71.90
2022-09-11T05:22:00.042Z,71.64
2022-09-11T05:24:27.297Z,71.54
2022-09-11T05:26:54.528Z,71.59
2022-09-11T05:29:23.124Z,71.28
2022-09-11T05:31:50.429Z,71.40
2022-09-11T05:34:17.793Z,71.03
2022-09-11T05:36:46.015Z,71.60
2022-09-11T05:39:13.254Z,72.24
2022-09-11T05:41:40.747Z,72.10
2022-09-11T05:44:08.040Z,71.82
2022-09-11T05:46:35.252Z,72.03
2022-09-11T05:49:02.629Z,72.14
2022-09-11T05:51:29.873Z,72.30
2022-09-11T05:53:58.251Z,72.08
2022-09-11T05:56:28.271Z,72.70
2022-09-11T05:58:55.894Z,72.66
2022-09-11T06:01:26.776Z,72.31
2022-09-11T06:03:54.744Z,72.33
2022-09-11T06:06:23.680Z,71.89
2022-09-11T06:08:53.080Z,72.16
2022-09-11T06:11:22.237Z,72.62
2022-09-11T06:13:50.211Z,72.57
2022-09-11T06:16:24.318Z,72.21
2022-09-11T06:18:53.037Z,72.42
2022-09-11T06:21:23.990Z,72.46
2022-09-11T06:23:53.400Z,72.77
2022-09-11T06:26:25.113Z,72.65
2022-09-11T06:28:54.372Z,72.43
2022-09-11T06:31:25.610Z,72.41
2022-09-11T06:33:53.737Z,72.44
2022-09-11T06:36:26.695Z,72.03
2022-09-11T06:38:56.897Z,72.36
2022-09-11T06:41:25.642Z,72.55
2022-09-11T06:43:53.895Z,72.47
2022-09-11T06:46:23.956Z,72.38
2022-09-11T06:48:52.776Z,72.14
2022-09-11T06:51:23.088Z,73.35
2022-09-11T06:53:58.168Z,73.68
2022-09-11T06:56:26.379Z,74.31
2022-09-11T06:58:53.937Z,74.78
2022-09-11T07:01:23.295Z,74.35
2022-09-11T07:03:54.262Z,74.60
2022-09-11T07:06:26.403Z,74.54
2022-09-11T07:09:01.689Z,74.82
2022-09-11T07:11:34.523Z,74.40
2022-09-11T07:14:05.923Z,74.36
2022-09-11T07:16:34.015Z,74.77
2022-09-11T07:19:01.607Z,74.73
2022-09-11T07:21:29.194Z,74.89
2022-09-11T07:23:59.390Z,74.44
2022-09-11T07:26:29.215Z,74.53
2022-09-11T07:28:57.650Z,74.42
2022-09-11T07:31:33.090Z,74.20
2022-09-11T07:34:02.768Z,74.28
2022-09-11T07:36:34.097Z,74.23
2022-09-11T07:39:03.561Z,73.69
2022-09-11T07:41:31.289Z,73.80
2022-09-11T07:44:00.480Z,73.90
2022-09-11T07:46:30.010Z,74.00
2022-09-11T07:48:58.709Z,73.00
2022-09-11T07:51:26.985Z,73.32
2022-09-11T07:53:57.950Z,72.93
2022-09-11T07:56:27.464Z,73.07
2022-09-11T07:58:56.263Z,73.61
2022-09-11T08:01:27.905Z,73.06
2022-09-11T08:04:01.546Z,74.29
2022-09-11T08:06:31.662Z,74.50
2022-09-11T08:09:02.857Z,74.42
2022-09-11T08:11:32.214Z,74.19
2022-09-11T08:13:59.470Z,74.55
2022-09-11T08:16:28.532Z,75.05
2022-09-11T08:18:57.102Z,75.38
2022-09-11T08:21:26.298Z,75.07
2022-09-11T08:23:53.601Z,75.04
2022-09-11T08:26:28.564Z,75.92
2022-09-11T08:28:58.350Z,74.31
2022-09-11T08:31:27.774Z,73.86
2022-09-11T08:33:56.631Z,73.89
2022-09-11T08:36:24.569Z,73.24
2022-09-11T08:38:52.734Z,73.16
2022-09-11T08:41:41.265Z,73.97
2022-09-11T08:44:42.439Z,73.02
2022-09-11T08:47:19.200Z,71.52
2022-09-11T08:50:08.832Z,73.00
2022-09-11T08:52:37.349Z,71.62
2022-09-11T08:55:06.577Z,70.53
2022-09-11T08:57:58.859Z,71.26
2022-09-11T09:01:07.147Z,69.03
2022-09-11T09:03:57.313Z,71.53
2022-09-11T09:07:25.194Z,70.55
2022-09-11T09:10:29.842Z,70.01
2022-09-11T09:13:41.571Z,69.32
2022-09-11T09:16:29.747Z,68.84
2022-09-11T09:19:26.652Z,69.05
2022-09-11T09:40:10.439Z,67.12
2022-09-11T09:43:03.448Z,67.22
2022-09-11T09:45:45.033Z,66.58
2022-09-11T09:48:12.978Z,67.19
2022-09-11T09:50:44.020Z,68.84
2022-09-11T09:53:23.879Z,68.55
2022-09-11T09:55:54.489Z,67.48
2022-09-11T09:58:26.285Z,66.85
2022-09-11T10:00:53.566Z,65.18
2022-09-11T10:03:25.830Z,66.91
2022-09-11T10:05:56.069Z,65.89
2022-09-11T10:08:36.160Z,67.21
2022-09-11T10:11:13.430Z,67.02
2022-09-11T10:13:45.398Z,66.68
2022-09-11T10:16:28.787Z,64.57
2022-09-11T10:18:56.838Z,65.41
2022-09-11T10:21:34.114Z,64.76
2022-09-11T10:24:23.408Z,64.30
2022-09-11T10:26:54.260Z,63.10
2022-09-11T10:29:26.873Z,64.12
2022-09-11T10:31:57.470Z,64.33
2022-09-11T10:34:27.480Z,63.54
2022-09-11T10:37:17.284Z,62.04
2022-09-11T10:39:48.107Z,62.98
2022-09-11T10:42:23.179Z,63.19
2022-09-11T10:44:53.296Z,64.04
2022-09-11T10:47:31.135Z,63.34
2022-09-11T10:50:21.135Z,62.25
2022-09-11T10:53:19.950Z,63.35
2022-09-11T10:55:58.279Z,62.93
2022-09-11T10:58:33.732Z,63.88
2022-09-11T11:01:01.688Z,62.06
2022-09-11T11:03:30.027Z,63.24
2022-09-11T11:06:26.916Z,64.68
2022-09-11T11:09:34.444Z,65.68
2022-09-11T11:12:32.062Z,65.28
2022-09-11T11:15:29.925Z,65.89
2022-09-11T11:18:12.005Z,65.20
2022-09-11T11:21:13.109Z,65.85
2022-09-11T11:24:21.960Z,64.00
2022-09-11T11:27:37.949Z,62.47
2022-09-11T11:30:40.454Z,64.55
2022-09-11T11:33:27.190Z,63.62
2022-09-11T11:36:37.988Z,64.31
2022-09-11T11:39:38.195Z,61.05
2022-09-11T11:42:26.936Z,63.26
2022-09-11T11:45:07.216Z,63.00
2022-09-11T11:47:44.747Z,62.81
2022-09-11T11:50:47.597Z,61.24
2022-09-11T12:03:15.787Z,62.33
2022-09-11T12:05:43.175Z,62.34
2022-09-11T12:08:15.949Z,61.20
2022-09-11T12:11:07.573Z,60.97
2022-09-11T12:13:47.484Z,60.92
2022-09-11T12:16:17.389Z,60.30
2022-09-11T12:19:19.795Z,60.23
2022-09-11T12:21:52.926Z,61.08
2022-09-11T12:24:50.682Z,60.16
2022-09-11T12:27:50.739Z,60.46
2022-09-11T12:30:17.920Z,60.35
2022-09-11T12:32:51.166Z,60.44
2022-09-11T12:35:42.283Z,59.64
2022-09-11T12:38:09.463Z,59.81
2022-09-11T12:40:48.536Z,59.54
2022-09-11T12:43:37.350Z,59.41
2022-09-11T12:46:10.916Z,58.80
2022-09-11T12:48:52.542Z,59.04
2022-09-11T12:51:55.217Z,59.73
2022-09-11T12:54:40.753Z,58.20
2022-09-11T12:57:28.090Z,59.04
2022-09-11T13:00:24.336Z,59.50
2022-09-11T13:02:58.114Z,59.82
2022-09-11T13:05:38.518Z,60.76
2022-09-11T13:08:16.416Z,60.96
2022-09-11T13:10:43.729Z,59.94
2022-09-11T13:13:43.493Z,58.68
2022-09-11T13:16:25.797Z,60.37
2022-09-11T13:19:03.411Z,63.46
2022-09-11T13:21:38.429Z,65.96
2022-09-11T13:24:28.450Z,66.73
2022-09-11T13:27:03.127Z,66.90
2022-09-11T13:29:34.036Z,69.08
2022-09-11T13:32:11.449Z,70.12
2022-09-11T13:34:41.847Z,69.74
2022-09-11T13:37:13.333Z,70.19
2022-09-11T13:39:43.440Z,70.30
2022-09-11T13:42:18.399Z,70.63
2022-09-11T13:44:52.304Z,72.18
2022-09-11T13:47:27.870Z,70.86
2022-09-11T13:50:02.876Z,71.43
2022-09-11T13:52:34.769Z,72.13
2022-09-11T13:55:10.457Z,70.47
2022-09-11T13:58:02.068Z,70.80
2022-09-11T14:00:45.279Z,71.70
2022-09-11T14:03:32.154Z,70.77
2022-09-11T14:06:04.671Z,71.75
2022-09-11T14:08:35.278Z,71.38
2022-09-11T14:11:27.190Z,72.04
2022-09-11T14:14:11.816Z,73.58
2022-09-11T14:16:48.966Z,71.91
2022-09-11T14:19:34.636Z,72.21
2022-09-11T14:22:15.813Z,71.72
2022-09-11T14:25:11.864Z,73.63
2022-09-11T14:27:44.152Z,77.64
2022-09-11T14:30:25.735Z,80.57
2022-09-11T14:33:25.061Z,81.04
2022-09-11T14:35:58.637Z,85.32
2022-09-11T14:38:26.326Z,91.74
2022-09-11T14:41:04.258Z,87.16
2022-09-11T14:43:34.707Z,87.32
2022-09-11T14:46:03.305Z,89.36
2022-09-11T14:48:33.826Z,86.99
2022-09-11T14:51:11.416Z,83.32
2022-09-11T14:53:43.534Z,88.68
2022-09-11T14:56:10.965Z,88.71
2022-09-11T14:58:38.705Z,87.97
2022-09-11T15:01:06.035Z,86.00
2022-09-11T15:03:33.314Z,85.96
2022-09-11T15:06:00.623Z,86.33
2022-09-11T15:08:27.915Z,85.63
2022-09-11T15:10:55.158Z,83.08
2022-09-11T15:13:22.997Z,81.63
2022-09-11T15:15:50.294Z,82.63
2022-09-11T15:18:18.914Z,80.90
2022-09-11T15:20:46.506Z,79.22
2022-09-11T15:23:13.918Z,77.06
2022-09-11T15:25:41.150Z,80.63
2022-09-11T15:28:10.299Z,82.43
2022-09-11T15:30:38.593Z,80.08
2022-09-11T15:33:05.901Z,81.15
2022-09-11T15:35:33.317Z,82.01
2022-09-11T15:38:00.630Z,81.91
2022-09-11T15:40:27.920Z,81.12
2022-09-11T15:42:57.285Z,79.21
2022-09-11T15:45:24.861Z,80.13
2022-09-11T15:47:52.141Z,81.09
2022-09-11T15:50:24.705Z,81.25
2022-09-11T15:52:53.804Z,80.66
2022-09-11T15:55:21.122Z,80.86
2022-09-11T15:57:48.351Z,81.52
2022-09-11T16:00:16.044Z,81.38
2022-09-11T16:02:43.400Z,81.40
2022-09-11T16:05:10.684Z,80.77
2022-09-11T16:07:37.911Z,80.69
2022-09-11T16:10:05.653Z,79.34
2022-09-11T16:12:34.772Z,80.03
2022-09-11T16:15:02.211Z,79.81
2022-09-11T16:17:32.439Z,80.09
2022-09-11T16:20:00.223Z,79.59
2022-09-11T16:22:31.361Z,80.40
2022-09-11T16:24:59.447Z,79.78
2022-09-11T16:27:26.750Z,80.48
2022-09-11T16:32:41.327Z,80.49
2022-09-11T16:35:13.345Z,80.67
2022-09-11T16:37:40.775Z,80.38
2022-09-11T16:40:09.657Z,81.18
2022-09-11T16:42:37.018Z,80.43
2022-09-11T16:45:04.627Z,80.20
2022-09-11T16:47:32.484Z,80.35
2022-09-11T16:50:09.774Z,81.04
2022-09-11T16:52:39.220Z,79.94
2022-09-11T16:55:09.827Z,80.70
2022-09-11T16:57:37.334Z,82.00
2022-09-11T17:00:08.877Z,81.42
2022-09-11T17:02:37.557Z,81.29
2022-09-11T17:05:07.787Z,80.88
2022-09-11T17:07:36.723Z,80.56
2022-09-11T17:10:04.957Z,80.70
2022-09-11T17:12:32.469Z,81.16
2022-09-11T17:14:59.730Z,81.07
2022-09-11T17:17:27.068Z,80.57
2022-09-11T17:19:54.481Z,81.13
2022-09-11T17:22:21.737Z,81.24
2022-09-11T17:24:49.001Z,80.93
2022-09-11T17:27:16.317Z,81.05
2022-09-11T17:29:44.928Z,81.33
2022-09-11T17:32:31.164Z,81.14
2022-09-11T17:34:59.279Z,80.59
2022-09-11T17:37:27.405Z,81.10
2022-09-11T17:39:55.621Z,81.14
2022-09-11T17:42:22.945Z,80.05
2022-09-11T17:44:50.243Z,80.38
2022-09-11T17:47:17.427Z,80.05
2022-09-11T17:49:45.370Z,79.82
2022-09-11T17:52:13.977Z,79.47
2022-09-11T17:54:41.309Z,79.50
2022-09-11T17:57:08.709Z,80.20
2022-09-11T17:59:36.833Z,80.42
2022-09-11T18:02:04.211Z,79.68
2022-09-11T18:04:31.819Z,80.19
2022-09-11T18:06:59.123Z,80.60
2022-09-11T18:09:26.354Z,80.47
2022-09-11T18:11:54.650Z,79.80
2022-09-11T18:14:22.130Z,79.39
2022-09-11T18:16:49.486Z,79.91
2022-09-11T18:19:20.446Z,81.51
2022-09-11T18:21:50.524Z,82.97
2022-09-11T18:24:20.847Z,81.73
2022-09-11T18:26:51.791Z,82.41
2022-09-11T18:29:21.134Z,82.55
2022-09-11T18:31:53.570Z,82.23
2022-09-11T18:34:27.865Z,82.84
2022-09-11T18:36:55.241Z,82.88
2022-09-11T18:39:23.281Z,82.43
2022-09-11T18:41:54.467Z,81.51
2022-09-11T18:44:24.699Z,81.47
2022-09-11T18:46:56.260Z,79.70
2022-09-11T18:49:23.865Z,78.64
2022-09-11T18:51:52.066Z,77.98
2022-09-11T18:54:21.365Z,78.54
2022-09-11T18:56:50.587Z,78.29
2022-09-11T18:59:20.215Z,78.80
2022-09-11T19:01:48.120Z,79.34
2022-09-11T19:04:16.930Z,80.34
2022-09-11T19:06:45.343Z,79.67
2022-09-11T19:09:13.446Z,79.26
2022-09-11T19:11:42.103Z,79.48
2022-09-11T19:14:12.606Z,80.94
2022-09-11T19:16:41.043Z,80.63
2022-09-11T19:19:09.050Z,80.64
2022-09-11T19:21:38.481Z,81.50
2022-09-11T19:24:07.575Z,80.41
2022-09-11T19:26:39.045Z,80.49
2022-09-11T19:29:08.684Z,80.13
2022-09-11T19:31:39.334Z,79.81
2022-09-11T19:34:09.605Z,78.76
2022-09-11T19:36:36.885Z,80.43
2022-09-11T19:39:05.646Z,80.67
2022-09-11T19:41:39.776Z,79.80
2022-09-11T19:44:08.443Z,79.93
2022-09-11T19:46:38.105Z,79.61
2022-09-11T19:49:06.799Z,79.71
2022-09-11T19:51:41.559Z,79.76
2022-09-11T19:54:11.630Z,80.05
2022-09-11T19:56:39.796Z,79.59
2022-09-11T19:59:08.501Z,79.63
2022-09-11T20:01:36.106Z,79.23
2022-09-11T20:04:03.823Z,79.30
2022-09-11T20:06:34.435Z,79.69
2022-09-11T20:09:29.309Z,79.41
2022-09-11T20:11:49.916Z,79.14
2022-09-11T20:14:17.609Z,79.68
2022-09-11T20:16:44.840Z,79.51
2022-09-11T20:19:12.279Z,79.68
2022-09-11T20:21:39.496Z,79.43
2022-09-11T20:24:07.445Z,79.65
2022-09-11T20:26:35.679Z,79.43
2022-09-11T20:29:07.184Z,79.86
2022-09-11T20:31:46.459Z,79.83
2022-09-11T20:34:17.647Z,80.08
2022-09-11T20:36:45.369Z,79.94
2022-09-11T20:39:15.218Z,80.00
2022-09-11T20:41:43.049Z,79.48
2022-09-11T20:44:10.806Z,79.58
2022-09-11T20:46:38.101Z,79.46
2022-09-11T20:49:05.813Z,79.55
2022-09-11T20:51:34.817Z,80.40
2022-09-11T20:54:02.670Z,79.88
2022-09-11T20:56:30.268Z,79.15
2022-09-11T20:58:57.807Z,79.59
2022-09-11T21:01:35.374Z,80.64
2022-09-11T21:04:05.089Z,79.62
2022-09-11T21:06:35.486Z,80.33
2022-09-11T21:09:11.089Z,79.37
2022-09-11T21:11:41.020Z,79.57
2022-09-11T21:14:08.610Z,79.30
2022-09-11T21:16:36.091Z,80.33
2022-09-11T21:19:04.964Z,80.03
2022-09-11T21:21:34.404Z,81.20
2022-09-11T21:24:04.860Z,81.69
2022-09-11T21:26:34.236Z,81.61
2022-09-11T21:29:05.428Z,79.95
2022-09-11T21:31:34.100Z,81.41
2022-09-11T21:34:02.237Z,80.88
2022-09-11T21:36:29.881Z,80.42
2022-09-11T21:38:57.119Z,80.77
2022-09-11T21:41:24.403Z,79.90
2022-09-11T21:43:51.700Z,81.87
2022-09-11T21:46:18.970Z,81.14
2022-09-11T21:48:46.321Z,80.73
2022-09-11T21:51:20.238Z,80.25
2022-09-11T21:53:49.985Z,80.00
2022-09-11T21:56:26.502Z,80.49
2022-09-11T21:58:55.147Z,80.48
2022-09-11T22:01:25.084Z,81.33
2022-09-11T22:03:53.126Z,80.73
2022-09-11T22:06:22.338Z,81.02
2022-09-11T22:08:49.610Z,81.00
2022-09-11T22:11:17.043Z,80.74
2022-09-11T22:13:44.695Z,80.64
2022-09-11T22:16:16.644Z,80.39
2022-09-11T22:18:48.218Z,80.98
2022-09-11T22:21:16.245Z,80.57
2022-09-11T22:23:43.709Z,80.37
2022-09-11T22:26:20.513Z,80.52
2022-09-11T22:28:47.844Z,80.50
2022-09-11T22:31:22.351Z,81.25
2022-09-11T22:33:49.807Z,81.18
2022-09-11T22:36:24.753Z,81.31
2022-09-11T22:38:52.604Z,82.22
2022-09-11T22:41:20.219Z,80.94
2022-09-11T22:43:48.919Z,80.23
2022-09-11T22:46:17.832Z,79.79
2022-09-11T22:48:45.087Z,80.63
2022-09-11T22:51:12.663Z,80.34
2022-09-11T22:53:40.513Z,80.29
2022-09-11T22:56:09.490Z,80.20
2022-09-11T22:58:38.442Z,80.10
2022-09-11T23:01:09.648Z,80.84
2022-09-11T23:03:37.681Z,80.51
2022-09-11T23:06:23.908Z,80.56
2022-09-11T23:08:52.680Z,80.73
2022-09-11T23:11:20.887Z,80.40
2022-09-11T23:13:49.864Z,80.11
2022-09-11T23:16:21.875Z,80.26
2022-09-11T23:18:54.329Z,79.92
2022-09-11T23:21:21.633Z,80.34
2022-09-11T23:23:54.976Z,80.00
2022-09-11T23:26:24.297Z,80.12
2022-09-11T23:28:53.448Z,79.68
2022-09-11T23:31:32.920Z,79.31
2022-09-11T23:34:03.804Z,79.65
2022-09-11T23:36:32.146Z,80.21
2022-09-11T23:38:59.599Z,79.41
2022-09-11T23:41:27.705Z,79.50
2022-09-11T23:43:55.802Z,79.64
2022-09-11T23:46:23.015Z,79.49
2022-09-11T23:48:50.321Z,79.62
2022-09-11T23:51:17.651Z,79.33
2022-09-11T23:53:45.585Z,78.58
2022-09-11T23:56:14.589Z,78.15
2022-09-11T23:58:42.956Z,78.59
